sensor_id;sensor_type;location;lat;lon;timestamp;pressure;altitude;pressure_sealevel;temperature;humidity
38227;BME280;24026;49.446;8.576;2023-07-08T00:01:41;100496.56;;;27.31;27.85
38227;BME280;24026;49.446;8.576;2023-07-08T00:04:01;100489.91;;;27.29;27.62
38227;BME280;24026;49.446;8.576;2023-07-08T00:06:26;100497.28;;;27.28;27.93
38227;BME280;24026;49.446;8.576;2023-07-08T00:08:47;100492.94;;;27.27;27.85
38227;BME280;24026;49.446;8.576;2023-07-08T00:11:12;100496.03;;;27.26;27.84
38227;BME280;24026;49.446;8.576;2023-07-08T00:13:32;100492.50;;;27.25;27.66
38227;BME280;24026;49.446;8.576;2023-07-08T00:15:53;100485.47;;;27.24;28.06
38227;BME280;24026;49.446;8.576;2023-07-08T00:18:15;100484.69;;;27.24;27.67
38227;BME280;24026;49.446;8.576;2023-07-08T00:20:39;100483.91;;;27.23;27.71
38227;BME280;24026;49.446;8.576;2023-07-08T00:22:59;100483.44;;;27.21;28.19
38227;BME280;24026;49.446;8.576;2023-07-08T00:25:22;100477.19;;;27.21;27.80
38227;BME280;24026;49.446;8.576;2023-07-08T00:27:43;100473.69;;;27.20;27.79
38227;BME280;24026;49.446;8.576;2023-07-08T00:30:21;100474.03;;;27.18;27.89
38227;BME280;24026;49.446;8.576;2023-07-08T00:32:42;100475.16;;;27.17;27.91
38227;BME280;24026;49.446;8.576;2023-07-08T00:35:02;100473.59;;;27.16;27.71
38227;BME280;24026;49.446;8.576;2023-07-08T00:37:23;100489.16;;;27.16;27.92
38227;BME280;24026;49.446;8.576;2023-07-08T00:39:43;100491.09;;;27.15;27.96
38227;BME280;24026;49.446;8.576;2023-07-08T00:42:13;100497.69;;;27.14;27.83
38227;BME280;24026;49.446;8.576;2023-07-08T00:44:35;100491.44;;;27.14;27.84
38227;BME280;24026;49.446;8.576;2023-07-08T00:47:05;100498.03;;;27.13;27.92
38227;BME280;24026;49.446;8.576;2023-07-08T00:49:36;100495.66;;;27.11;28.18
38227;BME280;24026;49.446;8.576;2023-07-08T00:52:27;100498.31;;;27.08;27.93
38227;BME280;24026;49.446;8.576;2023-07-08T00:54:56;100496.38;;;27.08;28.11
38227;BME280;24026;49.446;8.576;2023-07-08T00:57:17;100515.47;;;27.08;27.99
38227;BME280;24026;49.446;8.576;2023-07-08T00:59:46;100505.34;;;27.09;27.96
38227;BME280;24026;49.446;8.576;2023-07-08T01:02:10;100506.81;;;27.06;27.95
38227;BME280;24026;49.446;8.576;2023-07-08T01:04:35;100514.22;;;27.06;28.35
38227;BME280;24026;49.446;8.576;2023-07-08T01:06:59;100516.16;;;27.05;28.08
38227;BME280;24026;49.446;8.576;2023-07-08T01:09:30;100519.25;;;27.04;27.89
38227;BME280;24026;49.446;8.576;2023-07-08T01:11:54;100527.78;;;27.02;28.22
38227;BME280;24026;49.446;8.576;2023-07-08T01:14:17;100516.88;;;27.02;28.33
38227;BME280;24026;49.446;8.576;2023-07-08T01:16:41;100517.22;;;27.01;28.07
38227;BME280;24026;49.446;8.576;2023-07-08T01:19:04;100508.25;;;27.00;27.83
38227;BME280;24026;49.446;8.576;2023-07-08T01:21:36;100513.25;;;26.98;28.10
38227;BME280;24026;49.446;8.576;2023-07-08T01:23:57;100504.63;;;26.96;28.22
38227;BME280;24026;49.446;8.576;2023-07-08T01:26:23;100502.25;;;26.94;28.24
38227;BME280;24026;49.446;8.576;2023-07-08T01:28:45;100508.84;;;26.93;27.89
38227;BME280;24026;49.446;8.576;2023-07-08T01:31:05;100501.81;;;26.92;28.40
38227;BME280;24026;49.446;8.576;2023-07-08T01:33:26;100500.22;;;26.91;28.18
38227;BME280;24026;49.446;8.576;2023-07-08T01:35:46;100495.13;;;26.90;28.21
38227;BME280;24026;49.446;8.576;2023-07-08T01:38:11;100507.16;;;26.89;28.20
38227;BME280;24026;49.446;8.576;2023-07-08T01:40:36;100504.78;;;26.87;28.24
38227;BME280;24026;49.446;8.576;2023-07-08T01:42:57;100494.59;;;26.84;28.49
38227;BME280;24026;49.446;8.576;2023-07-08T01:45:20;100494.59;;;26.84;28.27
38227;BME280;24026;49.446;8.576;2023-07-08T01:47:42;100497.31;;;26.84;28.15
38227;BME280;24026;49.446;8.576;2023-07-08T01:50:05;100493.84;;;26.71;28.62
38227;BME280;24026;49.446;8.576;2023-07-08T01:52:26;100495.53;;;26.76;28.43
38227;BME280;24026;49.446;8.576;2023-07-08T01:54:54;100498.25;;;26.76;28.34
38227;BME280;24026;49.446;8.576;2023-07-08T01:57:15;100492.03;;;26.75;28.90
38227;BME280;24026;49.446;8.576;2023-07-08T01:59:36;100492.81;;;26.76;27.99
38227;BME280;24026;49.446;8.576;2023-07-08T02:01:57;100482.25;;;26.74;28.56
38227;BME280;24026;49.446;8.576;2023-07-08T02:04:17;100483.41;;;26.73;28.54
38227;BME280;24026;49.446;8.576;2023-07-08T02:06:38;100479.88;;;26.73;28.60
38227;BME280;24026;49.446;8.576;2023-07-08T02:08:58;100487.59;;;26.71;28.47
38227;BME280;24026;49.446;8.576;2023-07-08T02:11:19;100480.22;;;26.71;28.40
38227;BME280;24026;49.446;8.576;2023-07-08T02:13:39;100482.50;;;26.69;28.38
38227;BME280;24026;49.446;8.576;2023-07-08T02:15:59;100479.34;;;26.67;28.81
38227;BME280;24026;49.446;8.576;2023-07-08T02:18:20;100478.56;;;26.67;28.62
38227;BME280;24026;49.446;8.576;2023-07-08T02:20:42;100474.69;;;26.68;28.77
38227;BME280;24026;49.446;8.576;2023-07-08T02:23:03;100476.97;;;26.66;28.78
38227;BME280;24026;49.446;8.576;2023-07-08T02:25:23;100482.75;;;26.64;28.62
38227;BME280;24026;49.446;8.576;2023-07-08T02:27:44;100486.66;;;26.63;28.82
38227;BME280;24026;49.446;8.576;2023-07-08T02:30:05;100482.28;;;26.62;28.83
38227;BME280;24026;49.446;8.576;2023-07-08T02:32:26;100478.78;;;26.61;28.68
38227;BME280;24026;49.446;8.576;2023-07-08T02:34:46;100485.38;;;26.60;29.00
38227;BME280;24026;49.446;8.576;2023-07-08T02:37:07;100484.94;;;26.58;28.90
38227;BME280;24026;49.446;8.576;2023-07-08T02:39:27;100490.38;;;26.58;28.97
38227;BME280;24026;49.446;8.576;2023-07-08T02:41:48;100490.72;;;26.57;29.08
38227;BME280;24026;49.446;8.576;2023-07-08T02:44:08;100489.47;;;26.54;29.01
38227;BME280;24026;49.446;8.576;2023-07-08T02:46:29;100494.91;;;26.54;29.15
38227;BME280;24026;49.446;8.576;2023-07-08T02:48:49;100495.25;;;26.53;28.88
38227;BME280;24026;49.446;8.576;2023-07-08T02:51:09;100503.00;;;26.51;28.86
38227;BME280;24026;49.446;8.576;2023-07-08T02:53:30;100503.00;;;26.51;28.82
38227;BME280;24026;49.446;8.576;2023-07-08T02:55:51;100498.72;;;26.50;29.07
38227;BME280;24026;49.446;8.576;2023-07-08T02:58:12;100506.06;;;26.49;29.02
38227;BME280;24026;49.446;8.576;2023-07-08T03:00:32;100502.13;;;26.47;29.19
38227;BME280;24026;49.446;8.576;2023-07-08T03:02:53;100503.25;;;26.46;28.99
38227;BME280;24026;49.446;8.576;2023-07-08T03:05:13;100506.31;;;26.44;29.19
38227;BME280;24026;49.446;8.576;2023-07-08T03:07:33;100507.47;;;26.43;29.31
38227;BME280;24026;49.446;8.576;2023-07-08T03:09:54;100506.66;;;26.42;29.12
38227;BME280;24026;49.446;8.576;2023-07-08T03:12:14;100513.59;;;26.40;29.14
38227;BME280;24026;49.446;8.576;2023-07-08T03:14:35;100509.28;;;26.39;29.13
38227;BME280;24026;49.446;8.576;2023-07-08T03:16:56;100512.00;;;26.39;29.56
38227;BME280;24026;49.446;8.576;2023-07-08T03:19:16;100505.34;;;26.36;29.22
38227;BME280;24026;49.446;8.576;2023-07-08T03:21:37;100501.81;;;26.36;29.46
38227;BME280;24026;49.446;8.576;2023-07-08T03:23:57;100503.75;;;26.35;29.63
38227;BME280;24026;49.446;8.576;2023-07-08T03:26:23;100500.56;;;26.33;29.36
38227;BME280;24026;49.446;8.576;2023-07-08T03:28:44;100503.31;;;26.33;29.65
38227;BME280;24026;49.446;8.576;2023-07-08T03:31:08;100500.91;;;26.32;29.15
38227;BME280;24026;49.446;8.576;2023-07-08T03:33:29;100504.00;;;26.30;29.49
38227;BME280;24026;49.446;8.576;2023-07-08T03:35:49;100497.75;;;26.30;29.44
38227;BME280;24026;49.446;8.576;2023-07-08T03:38:10;100505.13;;;26.29;29.44
38227;BME280;24026;49.446;8.576;2023-07-08T03:40:31;100519.06;;;26.28;29.81
38227;BME280;24026;49.446;8.576;2023-07-08T03:42:51;100508.53;;;26.26;29.52
38227;BME280;24026;49.446;8.576;2023-07-08T03:45:11;100513.19;;;26.25;29.91
38227;BME280;24026;49.446;8.576;2023-07-08T03:47:32;100513.53;;;26.24;29.82
38227;BME280;24026;49.446;8.576;2023-07-08T03:49:52;100516.59;;;26.22;29.95
38227;BME280;24026;49.446;8.576;2023-07-08T03:52:15;100518.53;;;26.22;29.90
38227;BME280;24026;49.446;8.576;2023-07-08T03:54:37;100518.88;;;26.20;30.00
38227;BME280;24026;49.446;8.576;2023-07-08T03:56:57;100509.91;;;26.20;29.96
38227;BME280;24026;49.446;8.576;2023-07-08T03:59:18;100512.97;;;26.18;29.92
38227;BME280;24026;49.446;8.576;2023-07-08T04:01:41;100518.44;;;26.18;29.95
38227;BME280;24026;49.446;8.576;2023-07-08T04:04:02;100519.56;;;26.17;30.09
38227;BME280;24026;49.446;8.576;2023-07-08T04:06:22;100511.38;;;26.17;30.04
38227;BME280;24026;49.446;8.576;2023-07-08T04:08:43;100512.53;;;26.16;30.24
38227;BME280;24026;49.446;8.576;2023-07-08T04:11:03;100509.00;;;26.16;30.24
38227;BME280;24026;49.446;8.576;2023-07-08T04:13:24;100515.59;;;26.15;30.28
38227;BME280;24026;49.446;8.576;2023-07-08T04:15:44;100518.34;;;26.15;30.41
38227;BME280;24026;49.446;8.576;2023-07-08T04:18:05;100512.41;;;26.13;30.43
38227;BME280;24026;49.446;8.576;2023-07-08T04:20:25;100517.84;;;26.13;30.33
38227;BME280;24026;49.446;8.576;2023-07-08T04:22:46;100506.19;;;26.12;30.21
38227;BME280;24026;49.446;8.576;2023-07-08T04:25:07;100501.91;;;26.11;30.33
38227;BME280;24026;49.446;8.576;2023-07-08T04:27:27;100511.97;;;26.11;30.32
38227;BME280;24026;49.446;8.576;2023-07-08T04:29:48;100510.41;;;26.10;30.51
38227;BME280;24026;49.446;8.576;2023-07-08T04:32:08;100510.41;;;26.10;30.83
38227;BME280;24026;49.446;8.576;2023-07-08T04:34:29;100515.38;;;26.07;30.74
38227;BME280;24026;49.446;8.576;2023-07-08T04:36:49;100517.31;;;26.07;30.70
38227;BME280;24026;49.446;8.576;2023-07-08T04:39:10;100523.88;;;26.06;30.50
38227;BME280;24026;49.446;8.576;2023-07-08T04:41:31;100519.25;;;26.06;30.72
38227;BME280;24026;49.446;8.576;2023-07-08T04:43:52;100525.81;;;26.05;30.58
38227;BME280;24026;49.446;8.576;2023-07-08T04:46:22;100518.81;;;26.04;30.67
38227;BME280;24026;49.446;8.576;2023-07-08T04:48:47;100526.97;;;26.04;30.99
38227;BME280;24026;49.446;8.576;2023-07-08T04:51:08;100528.09;;;26.03;30.81
38227;BME280;24026;49.446;8.576;2023-07-08T04:53:28;100518.81;;;26.04;30.79
38227;BME280;24026;49.446;8.576;2023-07-08T04:55:55;100521.06;;;26.02;30.78
38227;BME280;24026;49.446;8.576;2023-07-08T04:58:16;100518.34;;;26.02;31.02
38227;BME280;24026;49.446;8.576;2023-07-08T05:00:36;100526.50;;;26.02;30.92
38227;BME280;24026;49.446;8.576;2023-07-08T05:02:57;100525.72;;;26.02;31.07
38227;BME280;24026;49.446;8.576;2023-07-08T05:05:17;100529.22;;;26.02;31.08
38227;BME280;24026;49.446;8.576;2023-07-08T05:07:38;100528.44;;;26.02;30.95
38227;BME280;24026;49.446;8.576;2023-07-08T05:09:58;100526.50;;;26.02;31.08
38227;BME280;24026;49.446;8.576;2023-07-08T05:12:18;100525.72;;;26.02;31.17
38227;BME280;24026;49.446;8.576;2023-07-08T05:14:39;100539.00;;;26.03;30.85
38227;BME280;24026;49.446;8.576;2023-07-08T05:17:01;100524.59;;;26.03;31.23
38227;BME280;24026;49.446;8.576;2023-07-08T05:19:21;100536.28;;;26.03;31.27
38227;BME280;24026;49.446;8.576;2023-07-08T05:21:43;100528.09;;;26.03;30.94
38227;BME280;24026;49.446;8.576;2023-07-08T05:24:06;100530.81;;;26.03;31.33
38227;BME280;24026;49.446;8.576;2023-07-08T05:26:27;100533.22;;;26.05;31.29
38227;BME280;24026;49.446;8.576;2023-07-08T05:28:48;100536.72;;;26.05;31.18
38227;BME280;24026;49.446;8.576;2023-07-08T05:31:08;100538.31;;;26.06;31.18
38227;BME280;24026;49.446;8.576;2023-07-08T05:33:30;100548.06;;;26.07;31.41
38227;BME280;24026;49.446;8.576;2023-07-08T05:35:51;100552.38;;;26.09;31.40
38227;BME280;24026;49.446;8.576;2023-07-08T05:38:12;100556.69;;;26.10;31.19
38227;BME280;24026;49.446;8.576;2023-07-08T05:40:32;100556.34;;;26.11;31.47
38227;BME280;24026;49.446;8.576;2023-07-08T05:42:52;100566.88;;;26.13;31.62
38227;BME280;24026;49.446;8.576;2023-07-08T05:45:13;100569.25;;;26.14;31.28
38227;BME280;24026;49.446;8.576;2023-07-08T05:47:33;100583.34;;;26.16;31.21
38227;BME280;24026;49.446;8.576;2023-07-08T05:49:54;100610.25;;;26.18;31.20
38227;BME280;24026;49.446;8.576;2023-07-08T05:52:14;100631.66;;;26.19;31.30
38227;BME280;24026;49.446;8.576;2023-07-08T05:54:34;100629.41;;;26.21;31.35
38227;BME280;24026;49.446;8.576;2023-07-08T05:56:55;100631.78;;;26.23;31.59
38227;BME280;24026;49.446;8.576;2023-07-08T05:59:15;100635.75;;;26.25;31.50
38227;BME280;24026;49.446;8.576;2023-07-08T06:01:36;100649.03;;;26.27;31.86
38227;BME280;24026;49.446;8.576;2023-07-08T06:03:56;100643.25;;;26.29;31.87
38227;BME280;24026;49.446;8.576;2023-07-08T06:06:19;100636.66;;;26.30;31.66
38227;BME280;24026;49.446;8.576;2023-07-08T06:08:41;100639.06;;;26.31;31.72
38227;BME280;24026;49.446;8.576;2023-07-08T06:11:01;100650.38;;;26.33;31.52
38227;BME280;24026;49.446;8.576;2023-07-08T06:13:22;100646.50;;;26.34;31.58
38227;BME280;24026;49.446;8.576;2023-07-08T06:15:42;100642.66;;;26.35;31.53
38227;BME280;24026;49.446;8.576;2023-07-08T06:18:02;100648.91;;;26.36;31.68
38227;BME280;24026;49.446;8.576;2023-07-08T06:20:23;100647.78;;;26.37;32.02
38227;BME280;24026;49.446;8.576;2023-07-08T06:22:44;100639.59;;;26.37;31.74
38227;BME280;24026;49.446;8.576;2023-07-08T06:25:04;100646.63;;;26.38;31.90
38227;BME280;24026;49.446;8.576;2023-07-08T06:27:25;100646.28;;;26.39;32.14
38227;BME280;24026;49.446;8.576;2023-07-08T06:29:45;100650.94;;;26.39;31.76
38227;BME280;24026;49.446;8.576;2023-07-08T06:32:06;100666.94;;;26.40;31.79
38227;BME280;24026;49.446;8.576;2023-07-08T06:34:27;100668.56;;;26.41;32.10
38227;BME280;24026;49.446;8.576;2023-07-08T06:36:47;100667.72;;;26.41;32.00
38227;BME280;24026;49.446;8.576;2023-07-08T06:39:08;100643.22;;;26.41;31.87
38227;BME280;24026;49.446;8.576;2023-07-08T06:41:31;100628.47;;;26.42;31.79
38227;BME280;24026;49.446;8.576;2023-07-08T06:43:51;100625.75;;;26.42;31.89
38227;BME280;24026;49.446;8.576;2023-07-08T06:46:13;100623.03;;;26.42;32.08
38227;BME280;24026;49.446;8.576;2023-07-08T06:48:33;100632.78;;;26.43;31.72
38227;BME280;24026;49.446;8.576;2023-07-08T06:50:54;100638.25;;;26.43;32.22
38227;BME280;24026;49.446;8.576;2023-07-08T06:53:15;100654.22;;;26.44;32.14
38227;BME280;24026;49.446;8.576;2023-07-08T06:55:36;100656.94;;;26.44;32.05
38227;BME280;24026;49.446;8.576;2023-07-08T06:57:56;100657.75;;;26.45;31.83
38227;BME280;24026;49.446;8.576;2023-07-08T07:00:16;100654.69;;;26.47;32.12
38227;BME280;24026;49.446;8.576;2023-07-08T07:02:37;100655.47;;;26.47;31.79
38227;BME280;24026;49.446;8.576;2023-07-08T07:04:58;100657.06;;;26.48;31.79
38227;BME280;24026;49.446;8.576;2023-07-08T07:07:18;100652.41;;;26.49;31.89
38227;BME280;24026;49.446;8.576;2023-07-08T07:09:39;100658.31;;;26.51;32.02
38227;BME280;24026;49.446;8.576;2023-07-08T07:11:59;100648.19;;;26.51;31.76
38227;BME280;24026;49.446;8.576;2023-07-08T07:14:20;100641.63;;;26.52;31.83
38227;BME280;24026;49.446;8.576;2023-07-08T07:16:40;100648.66;;;26.53;31.97
38227;BME280;24026;49.446;8.576;2023-07-08T07:19:02;100651.84;;;26.55;32.05
38227;BME280;24026;49.446;8.576;2023-07-08T07:21:22;100640.94;;;26.55;31.97
38227;BME280;24026;49.446;8.576;2023-07-08T07:23:43;100646.03;;;26.57;31.72
38227;BME280;24026;49.446;8.576;2023-07-08T07:26:03;100651.94;;;26.59;31.74
38227;BME280;24026;49.446;8.576;2023-07-08T07:28:24;100650.00;;;26.59;31.57
38227;BME280;24026;49.446;8.576;2023-07-08T07:30:45;100655.09;;;26.61;31.85
38227;BME280;24026;49.446;8.576;2023-07-08T07:33:06;100657.97;;;26.65;31.66
38227;BME280;24026;49.446;8.576;2023-07-08T07:35:26;100657.97;;;26.65;31.79
38227;BME280;24026;49.446;8.576;2023-07-08T07:37:47;100658.44;;;26.67;31.70
38227;BME280;24026;49.446;8.576;2023-07-08T07:40:09;100660.00;;;26.68;31.70
38227;BME280;24026;49.446;8.576;2023-07-08T07:42:33;100659.66;;;26.69;31.66
38227;BME280;24026;49.446;8.576;2023-07-08T07:44:53;100666.72;;;26.70;31.47
38227;BME280;24026;49.446;8.576;2023-07-08T07:47:14;100676.47;;;26.71;31.62
38227;BME280;24026;49.446;8.576;2023-07-08T07:49:34;100684.28;;;26.73;31.74
38227;BME280;24026;49.446;8.576;2023-07-08T07:51:55;100674.19;;;26.73;31.72
38227;BME280;24026;49.446;8.576;2023-07-08T07:54:16;100675.78;;;26.74;31.76
38227;BME280;24026;49.446;8.576;2023-07-08T07:56:36;100677.38;;;26.75;31.69
38227;BME280;24026;49.446;8.576;2023-07-08T07:58:56;100673.50;;;26.76;31.96
38227;BME280;24026;49.446;8.576;2023-07-08T08:01:17;100685.22;;;26.77;31.60
38227;BME280;24026;49.446;8.576;2023-07-08T08:03:41;100672.03;;;26.79;31.67
38227;BME280;24026;49.446;8.576;2023-07-08T08:06:02;100673.97;;;26.78;32.02
38227;BME280;24026;49.446;8.576;2023-07-08T08:08:24;100673.63;;;26.80;31.75
38227;BME280;24026;49.446;8.576;2023-07-08T08:10:44;100674.41;;;26.80;32.04
38227;BME280;24026;49.446;8.576;2023-07-08T08:13:04;100684.19;;;26.82;32.07
38227;BME280;24026;49.446;8.576;2023-07-08T08:15:25;100676.78;;;26.82;32.07
38227;BME280;24026;49.446;8.576;2023-07-08T08:17:45;100683.47;;;26.85;31.95
38227;BME280;24026;49.446;8.576;2023-07-08T08:20:09;100678.00;;;26.85;31.92
38227;BME280;24026;49.446;8.576;2023-07-08T08:22:29;100676.53;;;26.87;32.30
38227;BME280;24026;49.446;8.576;2023-07-08T08:24:50;100684.38;;;26.89;32.08
38227;BME280;24026;49.446;8.576;2023-07-08T08:27:10;100682.88;;;26.91;32.19
38227;BME280;24026;49.446;8.576;2023-07-08T08:29:31;100686.06;;;26.93;32.08
38227;BME280;24026;49.446;8.576;2023-07-08T08:31:51;100680.28;;;26.95;31.85
38227;BME280;24026;49.446;8.576;2023-07-08T08:34:12;100689.69;;;26.97;32.10
38227;BME280;24026;49.446;8.576;2023-07-08T08:36:32;100683.88;;;26.99;31.88
38227;BME280;24026;49.446;8.576;2023-07-08T08:38:52;100689.78;;;27.01;32.23
38227;BME280;24026;49.446;8.576;2023-07-08T08:41:15;100687.53;;;27.03;32.38
38227;BME280;24026;49.446;8.576;2023-07-08T08:43:37;100690.69;;;27.05;32.21
38227;BME280;24026;49.446;8.576;2023-07-08T08:46:21;100687.97;;;27.05;32.08
38227;BME280;24026;49.446;8.576;2023-07-08T08:48:56;100697.38;;;27.08;32.22
38227;BME280;24026;49.446;8.576;2023-07-08T08:51:19;100689.28;;;27.11;32.38
38227;BME280;24026;49.446;8.576;2023-07-08T08:53:40;100685.88;;;27.14;32.05
38227;BME280;24026;49.446;8.576;2023-07-08T08:56:18;100685.97;;;27.18;32.31
38227;BME280;24026;49.446;8.576;2023-07-08T08:59:03;100693.38;;;27.17;32.06
38227;BME280;24026;49.446;8.576;2023-07-08T09:01:26;100695.06;;;27.22;32.62
38227;BME280;24026;49.446;8.576;2023-07-08T09:04:00;100694.72;;;27.24;32.13
38227;BME280;24026;49.446;8.576;2023-07-08T09:06:26;100693.69;;;27.28;32.06
38227;BME280;24026;49.446;8.576;2023-07-08T09:08:47;100697.66;;;27.31;32.13
38227;BME280;24026;49.446;8.576;2023-07-08T09:14:27;100696.63;;;27.35;32.29
38227;BME280;24026;49.446;8.576;2023-07-08T09:19:40;100684.69;;;27.40;32.71
38227;BME280;24026;49.446;8.576;2023-07-08T09:24:47;100683.59;;;27.45;32.78
38227;BME280;24026;49.446;8.576;2023-07-08T09:27:08;100682.91;;;27.48;32.71
38227;BME280;24026;49.446;8.576;2023-07-08T09:29:31;100684.16;;;27.50;32.85
38227;BME280;24026;49.446;8.576;2023-07-08T09:31:52;100686.53;;;27.52;32.59
38227;BME280;24026;49.446;8.576;2023-07-08T09:34:19;100685.84;;;27.55;32.96
38227;BME280;24026;49.446;8.576;2023-07-08T09:36:44;100687.06;;;27.58;32.89
38227;BME280;24026;49.446;8.576;2023-07-08T09:39:10;100685.59;;;27.60;32.76
38227;BME280;24026;49.446;8.576;2023-07-08T09:41:35;100684.09;;;27.63;32.95
38227;BME280;24026;49.446;8.576;2023-07-08T09:44:24;100686.03;;;27.62;32.66
38227;BME280;24026;49.446;8.576;2023-07-08T09:46:49;100676.34;;;27.65;32.88
38227;BME280;24026;49.446;8.576;2023-07-08T09:49:25;100676.78;;;27.67;32.84
38227;BME280;24026;49.446;8.576;2023-07-08T09:51:48;100677.66;;;27.71;32.95
38227;BME280;24026;49.446;8.576;2023-07-08T09:54:10;100671.84;;;27.72;32.81
38227;BME280;24026;49.446;8.576;2023-07-08T09:56:30;100676.63;;;27.76;32.74
38227;BME280;24026;49.446;8.576;2023-07-08T09:58:51;100679.78;;;27.78;33.23
38227;BME280;24026;49.446;8.576;2023-07-08T10:01:23;100675.56;;;27.80;32.82
38227;BME280;24026;49.446;8.576;2023-07-08T10:03:46;100674.41;;;27.81;33.22
38227;BME280;24026;49.446;8.576;2023-07-08T10:06:20;100673.28;;;27.82;33.33
38227;BME280;24026;49.446;8.576;2023-07-08T10:08:42;100674.50;;;27.85;32.93
38227;BME280;24026;49.446;8.576;2023-07-08T10:11:26;100683.50;;;27.85;32.93
38227;BME280;24026;49.446;8.576;2023-07-08T10:13:50;100680.50;;;27.90;33.24
38227;BME280;24026;49.446;8.576;2023-07-08T10:16:23;100679.34;;;27.91;32.93
38227;BME280;24026;49.446;8.576;2023-07-08T10:18:44;100689.59;;;27.95;33.37
38227;BME280;24026;49.446;8.576;2023-07-08T10:21:45;100686.88;;;27.95;33.25
38227;BME280;24026;49.446;8.576;2023-07-08T10:27:35;100671.72;;;27.97;33.34
38227;BME280;24026;49.446;8.576;2023-07-08T10:30:21;100676.50;;;28.00;33.19
38227;BME280;24026;49.446;8.576;2023-07-08T10:33:32;100673.41;;;28.02;33.17
38227;BME280;24026;49.446;8.576;2023-07-08T10:36:30;100673.84;;;28.04;33.05
38227;BME280;24026;49.446;8.576;2023-07-08T10:41:51;100666.34;;;28.01;33.06
38227;BME280;24026;49.446;8.576;2023-07-08T10:44:26;100660.69;;;28.09;33.29
38227;BME280;24026;49.446;8.576;2023-07-08T10:47:02;100666.69;;;28.15;33.37
38227;BME280;24026;49.446;8.576;2023-07-08T10:52:35;100663.69;;;28.20;33.08
38227;BME280;24026;49.446;8.576;2023-07-08T10:55:30;100657.06;;;28.21;33.24
38227;BME280;24026;49.446;8.576;2023-07-08T11:00:29;100656.91;;;28.30;33.20
38227;BME280;24026;49.446;8.576;2023-07-08T11:05:45;100659.00;;;28.37;33.41
38227;BME280;24026;49.446;8.576;2023-07-08T11:08:19;100655.88;;;28.38;33.13
38227;BME280;24026;49.446;8.576;2023-07-08T11:10:53;100649.72;;;28.41;33.08
38227;BME280;24026;49.446;8.576;2023-07-08T11:13:21;100648.66;;;28.46;33.46
38227;BME280;24026;49.446;8.576;2023-07-08T11:15:50;100638.13;;;28.48;32.98
38227;BME280;24026;49.446;8.576;2023-07-08T11:18:17;100644.84;;;28.51;33.34
38227;BME280;24026;49.446;8.576;2023-07-08T11:20:54;100637.06;;;28.53;33.06
38227;BME280;24026;49.446;8.576;2023-07-08T11:23:40;100639.44;;;28.54;33.24
38227;BME280;24026;49.446;8.576;2023-07-08T11:28:50;100634.16;;;28.61;33.11
38227;BME280;24026;49.446;8.576;2023-07-08T11:31:12;100638.91;;;28.64;33.16
38227;BME280;24026;49.446;8.576;2023-07-08T11:33:34;100636.59;;;28.67;32.95
38227;BME280;24026;49.446;8.576;2023-07-08T11:35:56;100630.44;;;28.70;32.98
38227;BME280;24026;49.446;8.576;2023-07-08T11:38:20;100632.44;;;28.73;32.80
38227;BME280;24026;49.446;8.576;2023-07-08T11:40:53;100625.03;;;28.73;32.92
38227;BME280;24026;49.446;8.576;2023-07-08T11:43:14;100628.63;;;28.77;32.84
38227;BME280;24026;49.446;8.576;2023-07-08T11:45:38;100629.84;;;28.80;33.07
38227;BME280;24026;49.446;8.576;2023-07-08T11:48:13;100633.41;;;28.80;33.05
38227;BME280;24026;49.446;8.576;2023-07-08T11:50:40;100622.53;;;28.84;32.78
38227;BME280;24026;49.446;8.576;2023-07-08T11:53:08;100622.94;;;28.86;33.00
38227;BME280;24026;49.446;8.576;2023-07-08T11:57:59;100611.72;;;28.91;32.86
38227;BME280;24026;49.446;8.576;2023-07-08T12:00:23;100609.41;;;28.93;32.67
38227;BME280;24026;49.446;8.576;2023-07-08T12:05:13;100600.91;;;28.98;32.71
38227;BME280;24026;49.446;8.576;2023-07-08T12:07:40;100599.75;;;28.99;33.02
38227;BME280;24026;49.446;8.576;2023-07-08T12:10:10;100598.25;;;29.02;33.05
38227;BME280;24026;49.446;8.576;2023-07-08T12:12:35;100589.69;;;29.04;33.04
38227;BME280;24026;49.446;8.576;2023-07-08T12:15:26;100598.31;;;29.06;32.81
38227;BME280;24026;49.446;8.576;2023-07-08T12:17:46;100592.28;;;28.96;33.08
38227;BME280;24026;49.446;8.576;2023-07-08T12:20:25;100588.53;;;29.05;33.09
38227;BME280;24026;49.446;8.576;2023-07-08T12:22:47;100588.22;;;29.10;32.91
38227;BME280;24026;49.446;8.576;2023-07-08T12:25:16;100590.25;;;29.13;32.74
38227;BME280;24026;49.446;8.576;2023-07-08T12:27:37;100593.03;;;29.16;32.90
38227;BME280;24026;49.446;8.576;2023-07-08T12:29:57;100592.34;;;29.19;33.16
38227;BME280;24026;49.446;8.576;2023-07-08T12:32:18;100593.56;;;29.22;33.21
38227;BME280;24026;49.446;8.576;2023-07-08T12:34:39;100590.09;;;29.25;32.86
38227;BME280;24026;49.446;8.576;2023-07-08T12:37:00;100588.59;;;29.28;32.93
38227;BME280;24026;49.446;8.576;2023-07-08T12:39:21;100583.53;;;29.30;33.00
38227;BME280;24026;49.446;8.576;2023-07-08T12:41:43;100594.53;;;29.33;33.05
38227;BME280;24026;49.446;8.576;2023-07-08T12:44:13;100595.00;;;29.35;32.83
38227;BME280;24026;49.446;8.576;2023-07-08T12:46:34;100588.75;;;29.38;32.56
38227;BME280;24026;49.446;8.576;2023-07-08T12:48:54;100594.69;;;29.41;32.91
38227;BME280;24026;49.446;8.576;2023-07-08T12:51:21;100591.59;;;29.42;32.52
38227;BME280;24026;49.446;8.576;2023-07-08T12:53:42;100589.25;;;29.44;32.61
38227;BME280;24026;49.446;8.576;2023-07-08T12:56:06;100599.47;;;29.47;32.62
38227;BME280;24026;49.446;8.576;2023-07-08T12:58:27;100584.81;;;29.36;33.01
38227;BME280;24026;49.446;8.576;2023-07-08T13:00:48;100584.56;;;29.45;32.96
38227;BME280;24026;49.446;8.576;2023-07-08T13:03:22;100579.97;;;29.49;32.54